sensor_id;sensor_type;location;lat;lon;timestamp;P1;durP1;ratioP1;P2;durP2;ratioP2
66175;SDS011;52977;44.816;20.538;2023-02-28T00:00:11;24.95;;;9.48;;
66175;SDS011;52977;44.816;20.538;2023-02-28T00:02:39;26.73;;;10.52;;
66175;SDS011;52977;44.816;20.538;2023-02-28T00:05:09;21.50;;;9.45;;
66175;SDS011;52977;44.816;20.538;2023-02-28T00:07:36;29.25;;;10.65;;
66175;SDS011;52977;44.816;20.538;2023-02-28T00:10:06;25.08;;;10.15;;
66175;SDS011;52977;44.816;20.538;2023-02-28T00:12:34;23.08;;;9.93;;
66175;SDS011;52977;44.816;20.538;2023-02-28T00:15:01;26.17;;;10.63;;
66175;SDS011;52977;44.816;20.538;2023-02-28T00:17:28;25.63;;;9.80;;
66175;SDS011;52977;44.816;20.538;2023-02-28T00:19:54;24.00;;;9.90;;
66175;SDS011;52977;44.816;20.538;2023-02-28T00:22:20;27.77;;;10.18;;
66175;SDS011;52977;44.816;20.538;2023-02-28T00:24:47;28.17;;;11.52;;
66175;SDS011;52977;44.816;20.538;2023-02-28T00:27:14;26.85;;;10.20;;
66175;SDS011;52977;44.816;20.538;2023-02-28T00:29:40;30.05;;;11.20;;
66175;SDS011;52977;44.816;20.538;2023-02-28T00:32:06;28.55;;;10.95;;
66175;SDS011;52977;44.816;20.538;2023-02-28T00:34:32;28.17;;;10.60;;
66175;SDS011;52977;44.816;20.538;2023-02-28T00:37:06;26.40;;;10.18;;
66175;SDS011;52977;44.816;20.538;2023-02-28T00:39:34;22.20;;;10.48;;
66175;SDS011;52977;44.816;20.538;2023-02-28T00:42:02;29.85;;;10.48;;
66175;SDS011;52977;44.816;20.538;2023-02-28T00:44:29;29.65;;;11.68;;
66175;SDS011;52977;44.816;20.538;2023-02-28T00:46:58;28.33;;;11.75;;
66175;SDS011;52977;44.816;20.538;2023-02-28T00:49:26;28.17;;;11.70;;
66175;SDS011;52977;44.816;20.538;2023-02-28T00:51:53;29.00;;;11.50;;
66175;SDS011;52977;44.816;20.538;2023-02-28T00:54:21;27.30;;;11.27;;
66175;SDS011;52977;44.816;20.538;2023-02-28T00:56:48;28.42;;;11.10;;
66175;SDS011;52977;44.816;20.538;2023-02-28T00:59:15;28.70;;;11.07;;
66175;SDS011;52977;44.816;20.538;2023-02-28T01:01:44;27.52;;;10.60;;
66175;SDS011;52977;44.816;20.538;2023-02-28T01:04:11;31.45;;;11.27;;
66175;SDS011;52977;44.816;20.538;2023-02-28T01:06:38;29.80;;;11.13;;
66175;SDS011;52977;44.816;20.538;2023-02-28T01:09:04;34.00;;;11.70;;
66175;SDS011;52977;44.816;20.538;2023-02-28T01:11:32;26.65;;;10.82;;
66175;SDS011;52977;44.816;20.538;2023-02-28T01:13:58;29.45;;;11.75;;
66175;SDS011;52977;44.816;20.538;2023-02-28T01:16:25;28.40;;;11.07;;
66175;SDS011;52977;44.816;20.538;2023-02-28T01:18:52;27.02;;;9.65;;
66175;SDS011;52977;44.816;20.538;2023-02-28T01:21:19;26.00;;;11.05;;
66175;SDS011;52977;44.816;20.538;2023-02-28T01:23:46;27.25;;;10.55;;
66175;SDS011;52977;44.816;20.538;2023-02-28T01:26:18;32.20;;;11.00;;
66175;SDS011;52977;44.816;20.538;2023-02-28T01:28:46;23.42;;;10.23;;
66175;SDS011;52977;44.816;20.538;2023-02-28T01:31:13;25.42;;;10.40;;
66175;SDS011;52977;44.816;20.538;2023-02-28T01:33:39;25.05;;;9.52;;
66175;SDS011;52977;44.816;20.538;2023-02-28T01:36:07;27.73;;;11.00;;
66175;SDS011;52977;44.816;20.538;2023-02-28T01:38:36;22.67;;;8.40;;
66175;SDS011;52977;44.816;20.538;2023-02-28T01:41:02;29.65;;;11.30;;
66175;SDS011;52977;44.816;20.538;2023-02-28T01:43:30;30.08;;;11.15;;
66175;SDS011;52977;44.816;20.538;2023-02-28T01:45:58;30.17;;;11.38;;
66175;SDS011;52977;44.816;20.538;2023-02-28T01:48:29;25.35;;;10.43;;
66175;SDS011;52977;44.816;20.538;2023-02-28T01:50:59;27.98;;;9.95;;
66175;SDS011;52977;44.816;20.538;2023-02-28T01:53:32;29.20;;;10.30;;
66175;SDS011;52977;44.816;20.538;2023-02-28T01:56:03;27.00;;;11.35;;
66175;SDS011;52977;44.816;20.538;2023-02-28T01:58:32;29.85;;;10.77;;
66175;SDS011;52977;44.816;20.538;2023-02-28T02:01:00;27.98;;;11.70;;
66175;SDS011;52977;44.816;20.538;2023-02-28T02:03:28;22.48;;;9.80;;
66175;SDS011;52977;44.816;20.538;2023-02-28T02:05:56;27.73;;;11.35;;
66175;SDS011;52977;44.816;20.538;2023-02-28T02:08:23;25.02;;;10.20;;
66175;SDS011;52977;44.816;20.538;2023-02-28T02:10:55;29.00;;;10.88;;
66175;SDS011;52977;44.816;20.538;2023-02-28T02:13:28;28.42;;;11.40;;
66175;SDS011;52977;44.816;20.538;2023-02-28T02:19:14;24.92;;;10.27;;
66175;SDS011;52977;44.816;20.538;2023-02-28T02:24:51;28.23;;;10.68;;
66175;SDS011;52977;44.816;20.538;2023-02-28T02:27:54;24.33;;;9.32;;
66175;SDS011;52977;44.816;20.538;2023-02-28T02:41:16;29.20;;;11.32;;
66175;SDS011;52977;44.816;20.538;2023-02-28T02:43:51;26.00;;;11.10;;
66175;SDS011;52977;44.816;20.538;2023-02-28T02:46:25;28.23;;;10.30;;
66175;SDS011;52977;44.816;20.538;2023-02-28T02:48:57;25.45;;;9.50;;
66175;SDS011;52977;44.816;20.538;2023-02-28T02:51:27;27.63;;;9.52;;
66175;SDS011;52977;44.816;20.538;2023-02-28T02:54:00;26.02;;;9.73;;
66175;SDS011;52977;44.816;20.538;2023-02-28T02:56:33;28.77;;;10.98;;
66175;SDS011;52977;44.816;20.538;2023-02-28T02:59:02;21.48;;;8.80;;
66175;SDS011;52977;44.816;20.538;2023-02-28T03:01:32;27.13;;;10.15;;
66175;SDS011;52977;44.816;20.538;2023-02-28T03:04:01;29.23;;;10.13;;
66175;SDS011;52977;44.816;20.538;2023-02-28T03:06:33;24.75;;;9.90;;
66175;SDS011;52977;44.816;20.538;2023-02-28T03:09:01;23.42;;;9.48;;
66175;SDS011;52977;44.816;20.538;2023-02-28T03:11:28;28.38;;;10.27;;
66175;SDS011;52977;44.816;20.538;2023-02-28T03:16:36;24.05;;;10.00;;
66175;SDS011;52977;44.816;20.538;2023-02-28T03:19:13;26.85;;;10.50;;
66175;SDS011;52977;44.816;20.538;2023-02-28T03:21:53;25.85;;;9.57;;
66175;SDS011;52977;44.816;20.538;2023-02-28T03:24:34;26.00;;;9.57;;
66175;SDS011;52977;44.816;20.538;2023-02-28T03:27:09;24.52;;;9.88;;
66175;SDS011;52977;44.816;20.538;2023-02-28T03:29:44;25.75;;;9.57;;
66175;SDS011;52977;44.816;20.538;2023-02-28T03:35:45;28.58;;;9.32;;
66175;SDS011;52977;44.816;20.538;2023-02-28T03:40:47;24.00;;;8.80;;
66175;SDS011;52977;44.816;20.538;2023-02-28T03:43:22;25.00;;;8.85;;
66175;SDS011;52977;44.816;20.538;2023-02-28T03:45:53;21.83;;;9.07;;
66175;SDS011;52977;44.816;20.538;2023-02-28T03:48:26;23.50;;;8.85;;
66175;SDS011;52977;44.816;20.538;2023-02-28T03:51:03;29.48;;;10.02;;
66175;SDS011;52977;44.816;20.538;2023-02-28T03:53:42;23.25;;;8.38;;
66175;SDS011;52977;44.816;20.538;2023-02-28T03:56:17;21.33;;;7.47;;
66175;SDS011;52977;44.816;20.538;2023-02-28T03:59:07;25.20;;;9.10;;
66175;SDS011;52977;44.816;20.538;2023-02-28T04:04:07;22.38;;;8.38;;
66175;SDS011;52977;44.816;20.538;2023-02-28T04:06:34;20.60;;;8.27;;
66175;SDS011;52977;44.816;20.538;2023-02-28T04:09:00;26.20;;;9.10;;
66175;SDS011;52977;44.816;20.538;2023-02-28T04:14:18;21.38;;;8.68;;
66175;SDS011;52977;44.816;20.538;2023-02-28T04:16:47;22.40;;;8.57;;
66175;SDS011;52977;44.816;20.538;2023-02-28T04:19:13;23.30;;;9.00;;
66175;SDS011;52977;44.816;20.538;2023-02-28T04:21:40;23.38;;;8.57;;
66175;SDS011;52977;44.816;20.538;2023-02-28T04:24:09;22.35;;;8.55;;
66175;SDS011;52977;44.816;20.538;2023-02-28T04:26:40;25.00;;;9.13;;
66175;SDS011;52977;44.816;20.538;2023-02-28T04:29:09;24.83;;;9.25;;
66175;SDS011;52977;44.816;20.538;2023-02-28T04:31:35;22.83;;;8.35;;
66175;SDS011;52977;44.816;20.538;2023-02-28T04:34:01;23.70;;;8.68;;
66175;SDS011;52977;44.816;20.538;2023-02-28T04:36:27;22.70;;;9.05;;
66175;SDS011;52977;44.816;20.538;2023-02-28T04:38:53;20.88;;;8.05;;
66175;SDS011;52977;44.816;20.538;2023-02-28T04:41:19;21.75;;;7.70;;
66175;SDS011;52977;44.816;20.538;2023-02-28T04:43:45;20.80;;;7.93;;
66175;SDS011;52977;44.816;20.538;2023-02-28T04:46:10;23.10;;;8.38;;
66175;SDS011;52977;44.816;20.538;2023-02-28T04:48:37;20.25;;;7.25;;
66175;SDS011;52977;44.816;20.538;2023-02-28T04:51:04;20.27;;;8.20;;
66175;SDS011;52977;44.816;20.538;2023-02-28T04:53:36;20.80;;;8.43;;
66175;SDS011;52977;44.816;20.538;2023-02-28T04:56:03;19.27;;;8.13;;
66175;SDS011;52977;44.816;20.538;2023-02-28T04:58:29;24.33;;;8.77;;
66175;SDS011;52977;44.816;20.538;2023-02-28T05:01:01;22.08;;;8.02;;
66175;SDS011;52977;44.816;20.538;2023-02-28T05:03:28;22.08;;;8.52;;
66175;SDS011;52977;44.816;20.538;2023-02-28T05:05:54;22.70;;;8.88;;
66175;SDS011;52977;44.816;20.538;2023-02-28T05:08:19;23.13;;;8.68;;
66175;SDS011;52977;44.816;20.538;2023-02-28T05:10:45;21.65;;;8.85;;
66175;SDS011;52977;44.816;20.538;2023-02-28T05:13:13;22.38;;;8.73;;
66175;SDS011;52977;44.816;20.538;2023-02-28T05:15:40;22.42;;;8.95;;
66175;SDS011;52977;44.816;20.538;2023-02-28T05:18:07;21.95;;;8.88;;
66175;SDS011;52977;44.816;20.538;2023-02-28T05:20:34;22.20;;;7.78;;
66175;SDS011;52977;44.816;20.538;2023-02-28T05:23:00;20.83;;;7.40;;
66175;SDS011;52977;44.816;20.538;2023-02-28T05:25:27;18.77;;;7.00;;
66175;SDS011;52977;44.816;20.538;2023-02-28T05:27:53;21.33;;;7.85;;
66175;SDS011;52977;44.816;20.538;2023-02-28T05:30:20;21.48;;;7.88;;
66175;SDS011;52977;44.816;20.538;2023-02-28T05:32:49;19.08;;;7.60;;
66175;SDS011;52977;44.816;20.538;2023-02-28T05:35:16;21.35;;;8.55;;
66175;SDS011;52977;44.816;20.538;2023-02-28T05:37:42;22.27;;;8.48;;
66175;SDS011;52977;44.816;20.538;2023-02-28T05:40:08;23.00;;;8.65;;
66175;SDS011;52977;44.816;20.538;2023-02-28T05:42:35;20.70;;;8.38;;
66175;SDS011;52977;44.816;20.538;2023-02-28T05:45:01;24.65;;;8.85;;
66175;SDS011;52977;44.816;20.538;2023-02-28T05:47:27;19.45;;;7.65;;
66175;SDS011;52977;44.816;20.538;2023-02-28T05:49:53;22.10;;;7.82;;
66175;SDS011;52977;44.816;20.538;2023-02-28T05:52:20;20.55;;;8.27;;
66175;SDS011;52977;44.816;20.538;2023-02-28T05:54:46;21.95;;;8.32;;
66175;SDS011;52977;44.816;20.538;2023-02-28T05:57:13;23.13;;;9.10;;
66175;SDS011;52977;44.816;20.538;2023-02-28T05:59:39;24.20;;;8.77;;
66175;SDS011;52977;44.816;20.538;2023-02-28T06:02:06;20.55;;;7.65;;
66175;SDS011;52977;44.816;20.538;2023-02-28T06:04:38;24.60;;;8.02;;
66175;SDS011;52977;44.816;20.538;2023-02-28T06:07:04;25.30;;;9.07;;
66175;SDS011;52977;44.816;20.538;2023-02-28T06:09:30;23.50;;;8.98;;
66175;SDS011;52977;44.816;20.538;2023-02-28T06:12:00;25.80;;;9.45;;
66175;SDS011;52977;44.816;20.538;2023-02-28T06:14:31;25.73;;;10.07;;
66175;SDS011;52977;44.816;20.538;2023-02-28T06:16:58;25.77;;;9.70;;
66175;SDS011;52977;44.816;20.538;2023-02-28T06:19:25;23.13;;;8.55;;
66175;SDS011;52977;44.816;20.538;2023-02-28T06:21:52;25.65;;;9.45;;
66175;SDS011;52977;44.816;20.538;2023-02-28T06:24:19;28.90;;;10.27;;
66175;SDS011;52977;44.816;20.538;2023-02-28T06:26:46;24.55;;;9.35;;
66175;SDS011;52977;44.816;20.538;2023-02-28T06:29:12;30.90;;;10.88;;
66175;SDS011;52977;44.816;20.538;2023-02-28T06:31:42;26.92;;;9.98;;
66175;SDS011;52977;44.816;20.538;2023-02-28T06:34:09;28.83;;;10.85;;
66175;SDS011;52977;44.816;20.538;2023-02-28T06:36:37;26.88;;;9.98;;
66175;SDS011;52977;44.816;20.538;2023-02-28T06:39:04;27.60;;;10.75;;
66175;SDS011;52977;44.816;20.538;2023-02-28T06:41:30;22.60;;;9.27;;
66175;SDS011;52977;44.816;20.538;2023-02-28T06:43:57;26.25;;;10.38;;
66175;SDS011;52977;44.816;20.538;2023-02-28T06:46:23;29.83;;;11.15;;
66175;SDS011;52977;44.816;20.538;2023-02-28T06:48:49;29.35;;;10.32;;
66175;SDS011;52977;44.816;20.538;2023-02-28T06:51:17;29.73;;;10.32;;
66175;SDS011;52977;44.816;20.538;2023-02-28T06:53:46;27.35;;;10.50;;
66175;SDS011;52977;44.816;20.538;2023-02-28T06:56:13;28.35;;;10.90;;
66175;SDS011;52977;44.816;20.538;2023-02-28T06:58:41;25.23;;;10.27;;
66175;SDS011;52977;44.816;20.538;2023-02-28T07:01:07;24.92;;;8.98;;
66175;SDS011;52977;44.816;20.538;2023-02-28T07:03:34;22.30;;;8.65;;
66175;SDS011;52977;44.816;20.538;2023-02-28T07:06:01;27.52;;;9.85;;
66175;SDS011;52977;44.816;20.538;2023-02-28T07:08:29;29.00;;;10.48;;
66175;SDS011;52977;44.816;20.538;2023-02-28T07:10:57;28.13;;;10.57;;
66175;SDS011;52977;44.816;20.538;2023-02-28T07:13:24;26.20;;;9.35;;
66175;SDS011;52977;44.816;20.538;2023-02-28T07:15:56;25.30;;;9.35;;
66175;SDS011;52977;44.816;20.538;2023-02-28T07:18:24;21.52;;;9.50;;
66175;SDS011;52977;44.816;20.538;2023-02-28T07:20:50;26.88;;;9.73;;
66175;SDS011;52977;44.816;20.538;2023-02-28T07:23:17;24.77;;;10.07;;
66175;SDS011;52977;44.816;20.538;2023-02-28T07:25:42;23.92;;;9.05;;
66175;SDS011;52977;44.816;20.538;2023-02-28T07:28:09;24.10;;;9.48;;
66175;SDS011;52977;44.816;20.538;2023-02-28T07:30:34;29.95;;;11.25;;
66175;SDS011;52977;44.816;20.538;2023-02-28T07:33:00;31.05;;;10.80;;
66175;SDS011;52977;44.816;20.538;2023-02-28T07:35:26;28.45;;;11.32;;
66175;SDS011;52977;44.816;20.538;2023-02-28T07:37:52;26.52;;;10.40;;
66175;SDS011;52977;44.816;20.538;2023-02-28T07:40:17;23.80;;;10.10;;
66175;SDS011;52977;44.816;20.538;2023-02-28T07:42:44;28.23;;;10.60;;
66175;SDS011;52977;44.816;20.538;2023-02-28T07:45:10;27.92;;;10.93;;
66175;SDS011;52977;44.816;20.538;2023-02-28T07:47:37;25.73;;;10.38;;
66175;SDS011;52977;44.816;20.538;2023-02-28T07:50:05;26.00;;;10.45;;
66175;SDS011;52977;44.816;20.538;2023-02-28T07:52:32;29.45;;;11.85;;
66175;SDS011;52977;44.816;20.538;2023-02-28T07:54:59;28.67;;;10.38;;
66175;SDS011;52977;44.816;20.538;2023-02-28T07:57:24;25.13;;;9.77;;
66175;SDS011;52977;44.816;20.538;2023-02-28T07:59:50;23.38;;;9.02;;
66175;SDS011;52977;44.816;20.538;2023-02-28T08:02:17;25.55;;;8.98;;
66175;SDS011;52977;44.816;20.538;2023-02-28T08:04:43;24.45;;;9.98;;
66175;SDS011;52977;44.816;20.538;2023-02-28T08:07:12;27.30;;;10.07;;
66175;SDS011;52977;44.816;20.538;2023-02-28T08:09:39;23.63;;;9.60;;
66175;SDS011;52977;44.816;20.538;2023-02-28T08:12:06;23.77;;;9.23;;
66175;SDS011;52977;44.816;20.538;2023-02-28T08:14:32;29.42;;;10.38;;
66175;SDS011;52977;44.816;20.538;2023-02-28T08:16:58;26.45;;;9.57;;
66175;SDS011;52977;44.816;20.538;2023-02-28T08:19:24;22.45;;;9.25;;
66175;SDS011;52977;44.816;20.538;2023-02-28T08:21:50;26.08;;;9.77;;
66175;SDS011;52977;44.816;20.538;2023-02-28T08:24:16;24.02;;;8.80;;
66175;SDS011;52977;44.816;20.538;2023-02-28T08:26:43;27.95;;;10.77;;
66175;SDS011;52977;44.816;20.538;2023-02-28T08:29:09;24.23;;;9.70;;
66175;SDS011;52977;44.816;20.538;2023-02-28T08:31:36;23.77;;;10.10;;
66175;SDS011;52977;44.816;20.538;2023-02-28T08:34:10;23.92;;;9.45;;
66175;SDS011;52977;44.816;20.538;2023-02-28T08:36:39;27.58;;;11.25;;
66175;SDS011;52977;44.816;20.538;2023-02-28T08:39:10;30.45;;;10.65;;
66175;SDS011;52977;44.816;20.538;2023-02-28T08:41:36;25.98;;;9.85;;
66175;SDS011;52977;44.816;20.538;2023-02-28T08:44:02;26.60;;;10.43;;
66175;SDS011;52977;44.816;20.538;2023-02-28T08:46:28;29.95;;;10.82;;
66175;SDS011;52977;44.816;20.538;2023-02-28T08:48:55;33.42;;;11.35;;
66175;SDS011;52977;44.816;20.538;2023-02-28T08:51:25;28.98;;;12.27;;
66175;SDS011;52977;44.816;20.538;2023-02-28T08:53:53;26.98;;;10.75;;
66175;SDS011;52977;44.816;20.538;2023-02-28T08:56:20;34.40;;;11.93;;
66175;SDS011;52977;44.816;20.538;2023-02-28T08:58:47;31.38;;;11.98;;
66175;SDS011;52977;44.816;20.538;2023-02-28T09:01:18;26.77;;;10.88;;
66175;SDS011;52977;44.816;20.538;2023-02-28T09:03:48;29.05;;;10.63;;
66175;SDS011;52977;44.816;20.538;2023-02-28T09:06:17;25.70;;;10.45;;
66175;SDS011;52977;44.816;20.538;2023-02-28T09:08:44;26.60;;;9.98;;
66175;SDS011;52977;44.816;20.538;2023-02-28T09:11:10;28.30;;;10.18;;
66175;SDS011;52977;44.816;20.538;2023-02-28T09:13:37;27.98;;;10.95;;
66175;SDS011;52977;44.816;20.538;2023-02-28T09:16:05;25.33;;;9.43;;
66175;SDS011;52977;44.816;20.538;2023-02-28T09:18:36;28.80;;;10.95;;
66175;SDS011;52977;44.816;20.538;2023-02-28T09:21:04;24.70;;;10.93;;
66175;SDS011;52977;44.816;20.538;2023-02-28T09:23:31;27.02;;;9.98;;
66175;SDS011;52977;44.816;20.538;2023-02-28T09:25:58;34.97;;;11.93;;
66175;SDS011;52977;44.816;20.538;2023-02-28T09:28:24;33.78;;;13.05;;
66175;SDS011;52977;44.816;20.538;2023-02-28T09:30:51;26.05;;;10.38;;
66175;SDS011;52977;44.816;20.538;2023-02-28T09:33:20;25.52;;;10.55;;
66175;SDS011;52977;44.816;20.538;2023-02-28T09:35:50;23.50;;;9.07;;
66175;SDS011;52977;44.816;20.538;2023-02-28T09:38:22;26.88;;;9.77;;
66175;SDS011;52977;44.816;20.538;2023-02-28T09:40:58;26.67;;;9.77;;
66175;SDS011;52977;44.816;20.538;2023-02-28T09:43:28;22.67;;;9.07;;
66175;SDS011;52977;44.816;20.538;2023-02-28T09:46:06;23.52;;;9.40;;
66175;SDS011;52977;44.816;20.538;2023-02-28T09:48:52;21.48;;;10.13;;
66175;SDS011;52977;44.816;20.538;2023-02-28T09:51:30;24.08;;;9.60;;
66175;SDS011;52977;44.816;20.538;2023-02-28T09:54:05;22.92;;;9.02;;
66175;SDS011;52977;44.816;20.538;2023-02-28T10:02:08;24.70;;;10.30;;
66175;SDS011;52977;44.816;20.538;2023-02-28T10:05:00;23.52;;;9.55;;
66175;SDS011;52977;44.816;20.538;2023-02-28T10:10:44;32.40;;;12.38;;
66175;SDS011;52977;44.816;20.538;2023-02-28T10:15:43;25.40;;;10.40;;
66175;SDS011;52977;44.816;20.538;2023-02-28T10:18:13;25.15;;;9.88;;
66175;SDS011;52977;44.816;20.538;2023-02-28T10:20:45;26.17;;;9.00;;
66175;SDS011;52977;44.816;20.538;2023-02-28T10:23:20;24.48;;;9.65;;
66175;SDS011;52977;44.816;20.538;2023-02-28T10:26:01;23.08;;;10.02;;
66175;SDS011;52977;44.816;20.538;2023-02-28T10:28:36;21.30;;;9.75;;
66175;SDS011;52977;44.816;20.538;2023-02-28T10:31:08;22.42;;;8.93;;
66175;SDS011;52977;44.816;20.538;2023-02-28T10:33:43;19.20;;;8.63;;
66175;SDS011;52977;44.816;20.538;2023-02-28T10:36:14;19.95;;;9.40;;
66175;SDS011;52977;44.816;20.538;2023-02-28T10:41:13;21.30;;;8.80;;
66175;SDS011;52977;44.816;20.538;2023-02-28T10:43:42;21.02;;;9.10;;
66175;SDS011;52977;44.816;20.538;2023-02-28T10:51:45;26.38;;;9.77;;
66175;SDS011;52977;44.816;20.538;2023-02-28T10:54:16;19.48;;;8.07;;
66175;SDS011;52977;44.816;20.538;2023-02-28T10:56:44;21.40;;;9.48;;
66175;SDS011;52977;44.816;20.538;2023-02-28T11:01:41;26.90;;;10.32;;
66175;SDS011;52977;44.816;20.538;2023-02-28T11:04:17;29.00;;;11.50;;
66175;SDS011;52977;44.816;20.538;2023-02-28T11:06:59;35.10;;;11.68;;
66175;SDS011;52977;44.816;20.538;2023-02-28T11:09:28;27.73;;;11.20;;
66175;SDS011;52977;44.816;20.538;2023-02-28T11:11:59;27.88;;;11.18;;
66175;SDS011;52977;44.816;20.538;2023-02-28T11:14:27;25.85;;;10.80;;
66175;SDS011;52977;44.816;20.538;2023-02-28T11:16:57;30.20;;;11.43;;
66175;SDS011;52977;44.816;20.538;2023-02-28T11:19:40;28.02;;;10.93;;
66175;SDS011;52977;44.816;20.538;2023-02-28T11:22:11;27.02;;;11.05;;
66175;SDS011;52977;44.816;20.538;2023-02-28T11:24:47;32.85;;;12.13;;
66175;SDS011;52977;44.816;20.538;2023-02-28T11:29:54;23.30;;;10.27;;
66175;SDS011;52977;44.816;20.538;2023-02-28T11:32:21;25.02;;;10.98;;
66175;SDS011;52977;44.816;20.538;2023-02-28T11:35:14;24.95;;;9.95;;
66175;SDS011;52977;44.816;20.538;2023-02-28T11:37:41;24.55;;;9.98;;
66175;SDS011;52977;44.816;20.538;2023-02-28T11:40:13;27.95;;;11.57;;
66175;SDS011;52977;44.816;20.538;2023-02-28T11:45:55;23.58;;;9.23;;
66175;SDS011;52977;44.816;20.538;2023-02-28T11:54:08;23.00;;;10.23;;
66175;SDS011;52977;44.816;20.538;2023-02-28T11:56:47;21.58;;;9.13;;
66175;SDS011;52977;44.816;20.538;2023-02-28T12:15:11;27.35;;;10.95;;
66175;SDS011;52977;44.816;20.538;2023-02-28T12:18:05;28.13;;;10.93;;
66175;SDS011;52977;44.816;20.538;2023-02-28T12:26:44;24.48;;;11.52;;
66175;SDS011;52977;44.816;20.538;2023-02-28T12:29:40;25.58;;;11.38;;
66175;SDS011;52977;44.816;20.538;2023-02-28T12:32:19;25.13;;;11.82;;
66175;SDS011;52977;44.816;20.538;2023-02-28T12:37:36;28.20;;;10.85;;
66175;SDS011;52977;44.816;20.538;2023-02-28T12:40:11;28.45;;;11.75;;
66175;SDS011;52977;44.816;20.538;2023-02-28T12:42:45;27.30;;;11.07;;
66175;SDS011;52977;44.816;20.538;2023-02-28T12:45:46;30.73;;;12.13;;
66175;SDS011;52977;44.816;20.538;2023-02-28T12:48:20;31.73;;;12.35;;
66175;SDS011;52977;44.816;20.538;2023-02-28T12:50:51;28.35;;;11.20;;
66175;SDS011;52977;44.816;20.538;2023-02-28T12:53:21;31.00;;;11.98;;
66175;SDS011;52977;44.816;20.538;2023-02-28T12:58:54;28.65;;;11.25;;
66175;SDS011;52977;44.816;20.538;2023-02-28T13:09:37;22.95;;;9.35;;
66175;SDS011;52977;44.816;20.538;2023-02-28T13:12:12;23.50;;;9.45;;
66175;SDS011;52977;44.816;20.538;2023-02-28T13:14:40;23.77;;;10.75;;
66175;SDS011;52977;44.816;20.538;2023-02-28T13:19:33;23.27;;;9.52;;
66175;SDS011;52977;44.816;20.538;2023-02-28T13:22:02;21.10;;;8.63;;
66175;SDS011;52977;44.816;20.538;2023-02-28T13:24:40;22.10;;;9.10;;
66175;SDS011;52977;44.816;20.538;2023-02-28T13:29:36;20.75;;;9.05;;
66175;SDS011;52977;44.816;20.538;2023-02-28T13:34:33;20.88;;;9.10;;
66175;SDS011;52977;44.816;20.538;2023-02-28T13:39:48;19.52;;;7.95;;
66175;SDS011;52977;44.816;20.538;2023-02-28T13:47:39;20.33;;;8.52;;
66175;SDS011;52977;44.816;20.538;2023-02-28T13:50:22;17.85;;;7.70;;
66175;SDS011;52977;44.816;20.538;2023-02-28T13:55:41;19.52;;;8.65;;
66175;SDS011;52977;44.816;20.538;2023-02-28T14:06:21;32.90;;;12.98;;
66175;SDS011;52977;44.816;20.538;2023-02-28T14:09:02;28.63;;;11.15;;
66175;SDS011;52977;44.816;20.538;2023-02-28T14:11:45;32.40;;;12.20;;
66175;SDS011;52977;44.816;20.538;2023-02-28T14:17:03;26.45;;;10.82;;
66175;SDS011;52977;44.816;20.538;2023-02-28T14:19:35;28.98;;;11.88;;
66175;SDS011;52977;44.816;20.538;2023-02-28T14:22:25;25.15;;;10.68;;
66175;SDS011;52977;44.816;20.538;2023-02-28T14:25:16;32.03;;;11.27;;
66175;SDS011;52977;44.816;20.538;2023-02-28T14:33:31;25.02;;;9.70;;
66175;SDS011;52977;44.816;20.538;2023-02-28T14:36:07;26.30;;;10.80;;
66175;SDS011;52977;44.816;20.538;2023-02-28T14:38:43;24.50;;;10.27;;
66175;SDS011;52977;44.816;20.538;2023-02-28T14:41:17;25.65;;;10.13;;
66175;SDS011;52977;44.816;20.538;2023-02-28T14:46:46;20.10;;;8.05;;
66175;SDS011;52977;44.816;20.538;2023-02-28T14:51:50;26.23;;;10.32;;
66175;SDS011;52977;44.816;20.538;2023-02-28T14:54:32;27.73;;;10.82;;
66175;SDS011;52977;44.816;20.538;2023-02-28T14:56:59;23.48;;;10.57;;
66175;SDS011;52977;44.816;20.538;2023-02-28T14:59:26;26.33;;;10.93;;
66175;SDS011;52977;44.816;20.538;2023-02-28T15:04:55;25.17;;;11.30;;
66175;SDS011;52977;44.816;20.538;2023-02-28T15:07:23;36.40;;;14.35;;
66175;SDS011;52977;44.816;20.538;2023-02-28T15:10:10;35.63;;;12.63;;
66175;SDS011;52977;44.816;20.538;2023-02-28T15:12:41;28.45;;;11.68;;
66175;SDS011;52977;44.816;20.538;2023-02-28T15:15:15;36.50;;;13.10;;
66175;SDS011;52977;44.816;20.538;2023-02-28T15:17:44;39.80;;;14.63;;
66175;SDS011;52977;44.816;20.538;2023-02-28T15:20:12;33.30;;;13.63;;
66175;SDS011;52977;44.816;20.538;2023-02-28T15:22:40;32.33;;;12.43;;
66175;SDS011;52977;44.816;20.538;2023-02-28T15:25:06;29.75;;;12.60;;
66175;SDS011;52977;44.816;20.538;2023-02-28T15:27:37;29.48;;;12.07;;
66175;SDS011;52977;44.816;20.538;2023-02-28T15:30:15;28.17;;;11.90;;
66175;SDS011;52977;44.816;20.538;2023-02-28T15:33:01;26.45;;;11.70;;
66175;SDS011;52977;44.816;20.538;2023-02-28T15:35:31;27.88;;;11.43;;
66175;SDS011;52977;44.816;20.538;2023-02-28T15:40:44;26.88;;;10.52;;
66175;SDS011;52977;44.816;20.538;2023-02-28T15:48:30;31.92;;;10.45;;
66175;SDS011;52977;44.816;20.538;2023-02-28T15:53:47;31.60;;;11.57;;
66175;SDS011;52977;44.816;20.538;2023-02-28T15:56:25;26.23;;;10.00;;
66175;SDS011;52977;44.816;20.538;2023-02-28T15:58:56;28.52;;;11.77;;
66175;SDS011;52977;44.816;20.538;2023-02-28T16:01:28;26.20;;;11.07;;
66175;SDS011;52977;44.816;20.538;2023-02-28T16:03:57;30.50;;;11.55;;
66175;SDS011;52977;44.816;20.538;2023-02-28T16:06:45;31.17;;;12.20;;
66175;SDS011;52977;44.816;20.538;2023-02-28T16:09:14;32.00;;;10.50;;
66175;SDS011;52977;44.816;20.538;2023-02-28T16:11:42;31.88;;;11.63;;
66175;SDS011;52977;44.816;20.538;2023-02-28T16:14:14;33.35;;;12.48;;
66175;SDS011;52977;44.816;20.538;2023-02-28T16:16:44;30.98;;;11.88;;
66175;SDS011;52977;44.816;20.538;2023-02-28T16:19:11;29.83;;;11.23;;
66175;SDS011;52977;44.816;20.538;2023-02-28T16:21:37;31.63;;;12.00;;
66175;SDS011;52977;44.816;20.538;2023-02-28T16:24:03;30.17;;;12.00;;
66175;SDS011;52977;44.816;20.538;2023-02-28T16:26:29;29.40;;;11.23;;
66175;SDS011;52977;44.816;20.538;2023-02-28T16:28:54;29.30;;;10.88;;
66175;SDS011;52977;44.816;20.538;2023-02-28T16:31:20;28.65;;;11.85;;
66175;SDS011;52977;44.816;20.538;2023-02-28T16:33:46;29.20;;;11.75;;
66175;SDS011;52977;44.816;20.538;2023-02-28T16:36:13;29.98;;;11.43;;
66175;SDS011;52977;44.816;20.538;2023-02-28T16:38:44;31.05;;;12.45;;
66175;SDS011;52977;44.816;20.538;2023-02-28T16:41:14;35.97;;;12.60;;
66175;SDS011;52977;44.816;20.538;2023-02-28T16:43:45;36.38;;;13.35;;
66175;SDS011;52977;44.816;20.538;2023-02-28T16:46:13;33.25;;;13.18;;
66175;SDS011;52977;44.816;20.538;2023-02-28T16:48:40;31.88;;;12.68;;
66175;SDS011;52977;44.816;20.538;2023-02-28T16:51:08;34.95;;;12.70;;
66175;SDS011;52977;44.816;20.538;2023-02-28T16:53:37;32.50;;;13.35;;
66175;SDS011;52977;44.816;20.538;2023-02-28T16:56:03;31.70;;;13.27;;
66175;SDS011;52977;44.816;20.538;2023-02-28T16:58:32;30.33;;;13.20;;
66175;SDS011;52977;44.816;20.538;2023-02-28T17:01:01;30.75;;;12.23;;
66175;SDS011;52977;44.816;20.538;2023-02-28T17:03:28;33.88;;;11.65;;